createdAt,value
2018-10-18T00:00:23.725Z,101125.44
2018-10-18T00:01:27.125Z,101126.02
2018-10-18T00:02:30.523Z,101125.70
2018-10-18T00:03:33.969Z,101124.86
2018-10-18T00:04:37.364Z,101122.09
2018-10-18T00:05:40.756Z,101130.66
2018-10-18T00:06:44.207Z,101125.44
2018-10-18T00:07:47.647Z,101123.81
2018-10-18T00:08:51.175Z,101126.82
2018-10-18T00:09:54.623Z,101123.81
2018-10-18T00:10:58.120Z,101123.81
2018-10-18T00:12:01.564Z,101127.97
2018-10-18T00:13:05.020Z,101118.86
2018-10-18T00:14:08.506Z,101117.23
2018-10-18T00:15:12.039Z,101112.52
2018-10-18T00:16:15.414Z,101120.81
2018-10-18T00:17:24.227Z,101112.85
2018-10-18T00:18:27.597Z,101117.00
2018-10-18T00:19:31.034Z,101110.66
2018-10-18T00:20:34.481Z,101111.47
2018-10-18T00:21:37.928Z,101114.23
2018-10-18T00:22:41.489Z,101110.08
2018-10-18T00:23:44.900Z,101116.43
2018-10-18T00:24:48.328Z,101114.23
2018-10-18T00:25:51.768Z,101117.58
2018-10-18T00:26:55.159Z,101116.77
2018-10-18T00:27:58.589Z,101122.30
2018-10-18T00:29:02.031Z,101123.11
2018-10-18T00:30:07.852Z,101117.58
2018-10-18T00:31:11.202Z,101115.95
2018-10-18T00:32:14.616Z,101124.26
2018-10-18T00:33:18.029Z,101117.11
2018-10-18T00:34:21.430Z,101119.88
2018-10-18T00:35:24.859Z,101118.25
2018-10-18T00:36:28.337Z,101114.34
2018-10-18T00:37:31.714Z,101118.83
2018-10-18T00:38:35.122Z,101118.25
2018-10-18T00:39:38.528Z,101122.17
2018-10-18T00:40:41.970Z,101122.41
2018-10-18T00:41:45.397Z,101125.75
2018-10-18T00:42:48.846Z,101111.30
2018-10-18T00:43:52.229Z,101121.36
2018-10-18T00:44:55.696Z,101123.55
2018-10-18T00:45:59.088Z,101124.46
2018-10-18T00:47:02.533Z,101119.16
2018-10-18T00:48:06.025Z,101121.36
2018-10-18T00:49:09.509Z,101118.12
2018-10-18T00:50:13.049Z,101121.36
2018-10-18T00:51:16.422Z,101121.93
2018-10-18T00:52:20.193Z,101112.45
2018-10-18T00:53:23.693Z,101125.27
2018-10-18T00:54:27.209Z,101119.03
2018-10-18T00:55:30.932Z,101121.36
2018-10-18T00:56:34.298Z,101124.94
2018-10-18T00:57:37.837Z,101134.62
2018-10-18T00:58:41.352Z,101136.81
2018-10-18T00:59:44.745Z,101136.00
2018-10-18T01:00:48.164Z,101130.47
2018-10-18T01:01:51.561Z,101128.52
2018-10-18T01:02:54.995Z,101126.31
2018-10-18T01:03:58.491Z,101130.47
2018-10-18T01:05:01.972Z,101131.28
2018-10-18T01:06:05.616Z,101130.47
2018-10-18T01:07:09.104Z,101135.20
2018-10-18T01:08:12.620Z,101132.42
2018-10-18T01:09:16.017Z,101134.38
2018-10-18T01:10:19.443Z,101134.15
2018-10-18T01:11:22.866Z,101132.30
2018-10-18T01:12:27.045Z,101132.53
2018-10-18T01:13:30.423Z,101140.25
2018-10-18T01:14:33.807Z,101140.83
2018-10-18T01:15:37.196Z,101140.02
2018-10-18T01:16:40.812Z,101133.67
2018-10-18T01:17:44.246Z,101138.97
2018-10-18T01:18:47.661Z,101141.74
2018-10-18T01:19:51.085Z,101146.70
2018-10-18T01:20:54.555Z,101146.46
2018-10-18T01:21:57.992Z,101142.89
2018-10-18T01:23:01.407Z,101147.27
2018-10-18T01:24:05.248Z,101150.61
2018-10-18T01:25:08.620Z,101141.74
2018-10-18T01:26:12.091Z,101146.77
2018-10-18T01:27:15.434Z,101146.20
2018-10-18T01:28:19.047Z,101142.31
2018-10-18T01:29:22.474Z,101141.23
2018-10-18T01:30:25.910Z,101142.63
2018-10-18T01:31:29.550Z,101143.19
2018-10-18T01:32:32.980Z,101145.39
2018-10-18T01:33:36.380Z,101141.58
2018-10-18T01:34:40.199Z,101142.38
2018-10-18T01:35:43.632Z,101142.95
2018-10-18T01:36:47.034Z,101148.73
2018-10-18T01:37:50.457Z,101147.58
2018-10-18T01:38:53.954Z,101145.95
2018-10-18T01:39:57.412Z,101147.58
2018-10-18T01:41:00.814Z,101149.54
2018-10-18T01:42:04.248Z,101147.58
2018-10-18T01:43:07.678Z,101153.69
2018-10-18T01:44:11.435Z,101153.69
2018-10-18T01:45:14.810Z,101152.30
2018-10-18T01:46:18.226Z,101148.73
2018-10-18T01:47:21.637Z,101149.54
2018-10-18T01:48:25.061Z,101153.45
2018-10-18T01:49:28.580Z,101153.45
2018-10-18T01:50:32.034Z,101150.69
2018-10-18T01:51:35.699Z,101152.64
2018-10-18T01:52:39.178Z,101154.59
2018-10-18T01:53:42.567Z,101156.80
2018-10-18T01:54:45.952Z,101154.94
2018-10-18T01:55:49.358Z,101151.59
2018-10-18T01:56:52.806Z,101146.63
2018-10-18T01:57:56.263Z,101151.83
2018-10-18T01:59:00.044Z,101145.83
2018-10-18T02:00:03.576Z,101148.59
2018-10-18T02:01:06.904Z,101149.97
2018-10-18T02:02:10.453Z,101152.50
2018-10-18T02:03:13.831Z,101146.40
2018-10-18T02:04:17.237Z,101147.20
2018-10-18T02:05:20.639Z,101145.02
2018-10-18T02:06:24.124Z,101151.36
2018-10-18T02:07:27.549Z,101153.55
2018-10-18T02:08:30.953Z,101152.50
2018-10-18T02:09:34.347Z,101150.31
2018-10-18T02:10:37.838Z,101152.50
2018-10-18T02:11:42.069Z,101157.70
2018-10-18T02:12:45.480Z,101160.23
2018-10-18T02:13:48.934Z,101151.93
2018-10-18T02:14:52.298Z,101155.27
2018-10-18T02:15:55.726Z,101160.80
2018-10-18T02:16:59.176Z,101156.66
2018-10-18T02:18:02.641Z,101160.80
2018-10-18T02:19:06.361Z,101163.00
2018-10-18T02:20:10.732Z,101161.38
2018-10-18T02:21:14.313Z,101159.99
2018-10-18T02:22:17.793Z,101166.91
2018-10-18T02:23:21.409Z,101168.53
2018-10-18T02:24:24.842Z,101170.48
2018-10-18T02:25:28.256Z,101161.38
2018-10-18T02:26:31.651Z,101165.77
2018-10-18T02:27:35.091Z,101166.91
2018-10-18T02:28:39.432Z,101160.56
2018-10-18T02:29:42.963Z,101163.91
2018-10-18T02:30:46.405Z,101165.29
2018-10-18T02:31:49.814Z,101166.67
2018-10-18T02:32:53.245Z,101165.86
2018-10-18T02:33:56.747Z,101163.67
2018-10-18T02:35:00.205Z,101167.02
2018-10-18T02:36:03.674Z,101171.97
2018-10-18T02:37:07.099Z,101173.11
2018-10-18T02:38:10.505Z,101172.55
2018-10-18T02:39:13.891Z,101173.92
2018-10-18T02:40:17.263Z,101180.03
2018-10-18T02:41:20.651Z,101174.50
2018-10-18T02:42:24.083Z,101177.27
2018-10-18T02:43:27.603Z,101176.45
2018-10-18T02:44:31.046Z,101173.69
2018-10-18T02:45:34.707Z,101173.69
2018-10-18T02:46:38.101Z,101165.97
2018-10-18T02:47:41.519Z,101172.06
2018-10-18T02:48:44.939Z,101172.06
2018-10-18T02:49:48.320Z,101173.45
2018-10-18T02:50:51.718Z,101176.80
2018-10-18T02:51:55.481Z,101173.22
2018-10-18T02:52:59.087Z,101171.59
2018-10-18T02:54:02.511Z,101173.79
2018-10-18T02:55:06.235Z,101172.98
2018-10-18T02:56:09.813Z,101171.26
2018-10-18T02:57:13.263Z,101172.73
2018-10-18T02:58:16.657Z,101173.55
2018-10-18T02:59:20.018Z,101176.89
2018-10-18T03:00:23.437Z,101175.50
2018-10-18T03:01:26.850Z,101174.94
2018-10-18T03:02:30.265Z,101174.70
2018-10-18T03:03:33.670Z,101179.96
2018-10-18T03:04:37.064Z,101176.63
2018-10-18T03:05:40.439Z,101181.03
2018-10-18T03:06:43.824Z,101185.19
2018-10-18T03:07:47.250Z,101182.16
2018-10-18T03:08:50.657Z,101183.00
2018-10-18T03:09:54.133Z,101187.95
2018-10-18T03:10:57.533Z,101187.14
2018-10-18T03:12:01.061Z,101184.68
2018-10-18T03:13:05.661Z,101183.53
2018-10-18T03:14:09.984Z,101188.53
2018-10-18T03:15:13.377Z,101189.06
2018-10-18T03:16:16.762Z,101185.19
2018-10-18T03:17:20.190Z,101186.58
2018-10-18T03:18:23.642Z,101184.92
2018-10-18T03:19:27.088Z,101189.06
2018-10-18T03:20:30.494Z,101191.30
2018-10-18T03:21:33.888Z,101183.80
2018-10-18T03:22:37.291Z,101183.80
2018-10-18T03:23:40.731Z,101188.83
2018-10-18T03:24:44.094Z,101187.14
2018-10-18T03:25:47.481Z,101189.34
2018-10-18T03:26:50.900Z,101181.03
2018-10-18T03:27:54.273Z,101194.88
2018-10-18T03:28:57.707Z,101183.06
2018-10-18T03:30:01.155Z,101187.14
2018-10-18T03:31:04.810Z,101190.72
2018-10-18T03:32:08.207Z,101193.48
2018-10-18T03:33:11.626Z,101188.53
2018-10-18T03:34:15.192Z,101182.59
2018-10-18T03:35:18.621Z,101194.06
2018-10-18T03:36:22.057Z,101194.88
2018-10-18T03:37:25.418Z,101192.41
2018-10-18T03:38:28.833Z,101197.94
2018-10-18T03:39:32.234Z,101199.89
2018-10-18T03:40:35.632Z,101193.31
2018-10-18T03:41:39.096Z,101194.70
2018-10-18T03:42:42.503Z,101201.05
2018-10-18T03:43:45.870Z,101201.38
2018-10-18T03:44:49.325Z,101205.19
2018-10-18T03:45:52.853Z,101195.03
2018-10-18T03:46:56.226Z,101200.56
2018-10-18T03:48:00.261Z,101203.33
2018-10-18T03:49:04.643Z,101199.75
2018-10-18T03:50:08.337Z,101198.95
2018-10-18T03:51:11.754Z,101201.14
2018-10-18T03:52:15.161Z,101203.66
2018-10-18T03:53:18.565Z,101205.86
2018-10-18T03:54:21.977Z,101200.09
2018-10-18T03:55:25.398Z,101207.81
2018-10-18T03:56:28.797Z,101205.63
2018-10-18T03:57:32.240Z,101204.23
2018-10-18T03:58:35.629Z,101200.09
2018-10-18T03:59:39.221Z,101200.09
2018-10-18T04:00:42.556Z,101198.70
2018-10-18T04:01:46.024Z,101196.52
2018-10-18T04:02:49.426Z,101197.09
2018-10-18T04:03:52.797Z,101205.14
2018-10-18T04:04:56.272Z,101194.08
2018-10-18T04:05:59.784Z,101205.72
2018-10-18T04:07:03.176Z,101205.72
2018-10-18T04:08:06.961Z,101209.53
2018-10-18T04:09:11.063Z,101206.26
2018-10-18T04:10:14.483Z,101207.41
2018-10-18T04:11:17.912Z,101202.30
2018-10-18T04:12:21.456Z,101206.02
2018-10-18T04:13:24.960Z,101206.59
2018-10-18T04:14:28.297Z,101203.83
2018-10-18T04:15:31.824Z,101201.63
2018-10-18T04:16:35.220Z,101203.02
2018-10-18T04:17:38.584Z,101203.02
2018-10-18T04:18:42.081Z,101206.92
2018-10-18T04:19:45.493Z,101210.50
2018-10-18T04:20:48.954Z,101198.69
2018-10-18T04:21:52.394Z,101208.78
2018-10-18T04:22:55.931Z,101210.17
2018-10-18T04:23:59.386Z,101210.17
2018-10-18T04:25:02.748Z,101207.41
2018-10-18T04:26:06.170Z,101213.51
2018-10-18T04:27:09.550Z,101214.08
2018-10-18T04:28:12.914Z,101216.84
2018-10-18T04:29:16.331Z,101219.61
2018-10-18T04:30:20.095Z,101209.69
2018-10-18T04:31:23.577Z,101210.50
2018-10-18T04:32:27.050Z,101216.84
2018-10-18T04:33:30.645Z,101218.80
2018-10-18T04:34:34.038Z,101220.52
2018-10-18T04:35:37.480Z,101219.13
2018-10-18T04:36:40.907Z,101217.98
2018-10-18T04:37:44.298Z,101215.70
2018-10-18T04:38:47.705Z,101221.80
2018-10-18T04:39:51.119Z,101222.61
2018-10-18T04:40:54.546Z,101224.23
2018-10-18T04:41:58.163Z,101222.38
2018-10-18T04:43:01.616Z,101225.95
2018-10-18T04:44:05.159Z,101226.52
2018-10-18T04:45:09.152Z,101223.19
2018-10-18T04:46:12.630Z,101227.34
2018-10-18T04:47:16.485Z,101220.19
2018-10-18T04:48:19.976Z,101221.33
2018-10-18T04:49:23.341Z,101223.28
2018-10-18T04:50:26.796Z,101221.09
2018-10-18T04:51:30.221Z,101220.82
2018-10-18T04:52:33.740Z,101224.16
2018-10-18T04:53:37.140Z,101220.91
2018-10-18T04:54:41.102Z,101221.72
2018-10-18T04:55:44.505Z,101215.63
2018-10-18T04:56:48.678Z,101218.72
2018-10-18T04:57:52.135Z,101220.10
2018-10-18T04:58:55.829Z,101220.29
2018-10-18T04:59:59.244Z,101220.10
2018-10-18T05:01:02.736Z,101226.20
2018-10-18T05:02:06.527Z,101228.16
2018-10-18T05:03:10.943Z,101230.36
2018-10-18T05:04:14.557Z,101235.88
2018-10-18T05:05:29.292Z,101230.36
2018-10-18T05:06:32.704Z,101233.45
2018-10-18T05:07:36.133Z,101233.45
2018-10-18T05:08:39.526Z,101235.88
2018-10-18T05:09:42.926Z,101238.65
2018-10-18T05:10:46.392Z,101237.27
2018-10-18T05:11:49.790Z,101246.28
2018-10-18T05:12:53.242Z,101248.81
2018-10-18T05:13:56.680Z,101246.85
2018-10-18T05:15:00.139Z,101243.28
2018-10-18T05:16:03.669Z,101243.52
2018-10-18T05:17:07.274Z,101247.66
2018-10-18T05:18:10.875Z,101251.58
2018-10-18T05:19:14.335Z,101247.42
2018-10-18T05:20:17.722Z,101254.34
2018-10-18T05:21:21.218Z,101249.95
2018-10-18T05:22:24.668Z,101255.24
2018-10-18T05:23:28.057Z,101249.71
2018-10-18T05:24:31.712Z,101255.58
2018-10-18T05:25:35.338Z,101246.66
2018-10-18T05:26:38.736Z,101255.91
2018-10-18T05:27:42.220Z,101255.09
2018-10-18T05:28:45.693Z,101259.81
2018-10-18T05:29:49.096Z,101261.77
2018-10-18T05:30:52.574Z,101254.43
2018-10-18T05:31:55.931Z,101263.30
2018-10-18T05:32:59.352Z,101253.33
2018-10-18T05:34:02.800Z,101267.78
2018-10-18T05:35:06.570Z,101263.39
2018-10-18T05:36:09.999Z,101266.48
2018-10-18T05:37:13.463Z,101267.63
2018-10-18T05:38:16.814Z,101269.91
2018-10-18T05:39:20.233Z,101273.83
2018-10-18T05:40:23.698Z,101273.02
2018-10-18T05:41:27.136Z,101276.59
2018-10-18T05:42:30.534Z,101270.82
2018-10-18T05:43:33.915Z,101279.36
2018-10-18T05:44:37.353Z,101273.25
2018-10-18T05:45:40.806Z,101274.16
2018-10-18T05:46:44.391Z,101278.61
2018-10-18T05:47:49.063Z,101271.78
2018-10-18T05:48:52.448Z,101277.16
2018-10-18T05:49:55.919Z,101278.06
2018-10-18T05:50:59.344Z,101278.72
2018-10-18T05:52:02.735Z,101280.44
2018-10-18T05:53:06.261Z,101280.82
2018-10-18T05:54:09.661Z,101281.96
2018-10-18T05:55:13.501Z,101284.24
2018-10-18T05:56:16.891Z,101278.80
2018-10-18T05:57:20.293Z,101278.32
2018-10-18T05:58:23.716Z,101281.98
2018-10-18T05:59:27.177Z,101274.59
2018-10-18T06:00:30.633Z,101274.65
2018-10-18T06:01:34.023Z,101274.02
2018-10-18T06:02:37.736Z,101277.52
2018-10-18T06:03:41.155Z,101278.48
2018-10-18T06:04:44.896Z,101276.15
2018-10-18T06:05:48.380Z,101278.84
2018-10-18T06:06:52.020Z,101279.25
2018-10-18T06:07:55.624Z,101279.54
2018-10-18T06:08:59.844Z,101281.81
2018-10-18T06:10:03.419Z,101269.88
2018-10-18T06:11:18.093Z,101282.87
2018-10-18T06:12:21.504Z,101280.38
2018-10-18T06:13:25.291Z,101287.77
2018-10-18T06:14:29.498Z,101278.73
2018-10-18T06:15:32.956Z,101289.08
2018-10-18T06:16:36.512Z,101288.18
2018-10-18T06:17:40.555Z,101295.56
2018-10-18T06:18:44.183Z,101297.44
2018-10-18T06:19:47.639Z,101297.19
2018-10-18T06:20:51.045Z,101302.31
2018-10-18T06:21:54.847Z,101305.89
2018-10-18T06:22:58.437Z,101308.92
2018-10-18T06:24:01.736Z,101302.83
2018-10-18T06:25:06.268Z,101300.30
2018-10-18T06:26:09.670Z,101300.02
2018-10-18T06:27:13.084Z,101305.21
2018-10-18T06:28:16.734Z,101301.64
2018-10-18T06:29:20.173Z,101308.22
2018-10-18T06:30:23.895Z,101304.16
2018-10-18T06:31:28.192Z,101309.27
2018-10-18T06:32:31.643Z,101311.47
2018-10-18T06:33:35.050Z,101309.27
2018-10-18T06:34:38.465Z,101310.66
2018-10-18T06:35:41.931Z,101305.78
2018-10-18T06:36:45.359Z,101315.04
2018-10-18T06:37:48.801Z,101316.66
2018-10-18T06:38:52.183Z,101314.47
2018-10-18T06:39:55.647Z,101319.42
2018-10-18T06:40:59.070Z,101326.33
2018-10-18T06:42:02.553Z,101327.95
2018-10-18T06:43:05.997Z,101327.72
2018-10-18T06:44:09.460Z,101331.86
2018-10-18T06:45:16.361Z,101333.24
2018-10-18T06:46:19.762Z,101327.39
2018-10-18T06:47:23.374Z,101330.16
2018-10-18T06:48:26.774Z,101330.72
2018-10-18T06:49:30.317Z,101333.48
2018-10-18T06:50:33.748Z,101330.48
2018-10-18T06:51:37.208Z,101327.95
2018-10-18T06:52:40.852Z,101323.57
2018-10-18T06:53:44.229Z,101311.55
2018-10-18T06:54:47.685Z,101326.58
2018-10-18T06:55:51.075Z,101322.43
2018-10-18T06:56:54.464Z,101325.20
2018-10-18T06:57:57.937Z,101323.00
2018-10-18T06:59:01.325Z,101320.81
2018-10-18T07:00:05.865Z,101318.86
2018-10-18T07:01:09.275Z,101316.66
2018-10-18T07:02:12.664Z,101329.67
2018-10-18T07:03:16.142Z,101327.95
2018-10-18T07:04:19.574Z,101328.28
2018-10-18T07:05:23.103Z,101329.67
2018-10-18T07:06:26.743Z,101331.30
2018-10-18T07:07:30.265Z,101329.09
2018-10-18T07:08:33.664Z,101330.48
2018-10-18T07:09:37.077Z,101328.05
2018-10-18T07:10:40.519Z,101326.09
2018-10-18T07:11:43.961Z,101333.00
2018-10-18T07:12:47.390Z,101332.19
2018-10-18T07:13:50.951Z,101329.42
2018-10-18T07:14:54.332Z,101338.28
2018-10-18T07:15:57.753Z,101330.80
2018-10-18T07:17:01.189Z,101334.95
2018-10-18T07:18:04.991Z,101336.90
2018-10-18T07:19:08.415Z,101342.42
2018-10-18T07:20:12.891Z,101339.66
2018-10-18T07:21:16.314Z,101338.85
2018-10-18T07:22:19.754Z,101335.52
2018-10-18T07:23:23.173Z,101339.42
2018-10-18T07:24:26.613Z,101335.84
2018-10-18T07:25:30.106Z,101343.00
2018-10-18T07:26:33.498Z,101342.42
2018-10-18T07:27:37.330Z,101344.94
2018-10-18T07:28:40.781Z,101343.80
2018-10-18T07:29:44.269Z,101346.56
2018-10-18T07:30:47.687Z,101341.86
2018-10-18T07:31:51.074Z,101338.28
2018-10-18T07:32:54.535Z,101342.42
2018-10-18T07:33:57.955Z,101339.66
2018-10-18T07:35:01.667Z,101328.50
2018-10-18T07:36:05.127Z,101339.66
2018-10-18T07:37:08.559Z,101337.14
2018-10-18T07:38:12.002Z,101339.91
2018-10-18T07:39:15.679Z,101341.28
2018-10-18T07:40:19.128Z,101342.67
2018-10-18T07:41:22.680Z,101342.91
2018-10-18T07:42:26.076Z,101342.34
2018-10-18T07:43:29.519Z,101343.73
2018-10-18T07:44:32.952Z,101345.67
2018-10-18T07:45:36.429Z,101344.53
2018-10-18T07:46:39.920Z,101349.25
2018-10-18T07:47:43.940Z,101354.20
2018-10-18T07:48:47.354Z,101340.55
2018-10-18T07:49:50.888Z,101353.07
2018-10-18T07:50:54.300Z,101356.08
2018-10-18T07:51:57.745Z,101356.64
2018-10-18T07:53:01.226Z,101359.98
2018-10-18T07:54:04.689Z,101355.83
2018-10-18T07:55:09.024Z,101356.64
2018-10-18T07:56:12.494Z,101359.73
2018-10-18T07:57:16.008Z,101349.91
2018-10-18T07:58:19.489Z,101355.27
2018-10-18T07:59:22.944Z,101353.31
2018-10-18T08:00:26.486Z,101351.93
2018-10-18T08:01:30.230Z,101349.98
2018-10-18T08:02:33.828Z,101356.08
2018-10-18T08:03:37.217Z,101361.27
2018-10-18T08:04:40.618Z,101350.95
2018-10-18T08:05:44.131Z,101352.34
2018-10-18T08:06:47.558Z,101357.70
2018-10-18T08:07:50.945Z,101360.47
2018-10-18T08:08:54.374Z,101366.23
2018-10-18T08:09:57.885Z,101356.56
2018-10-18T08:11:01.403Z,101366.23
2018-10-18T08:12:05.233Z,101363.75
2018-10-18T08:13:08.806Z,101361.80
2018-10-18T08:14:12.139Z,101367.56
2018-10-18T08:15:16.586Z,101366.18
2018-10-18T08:16:20.049Z,101365.94
2018-10-18T08:17:23.612Z,101362.03
2018-10-18T08:18:26.970Z,101357.33
2018-10-18T08:19:30.551Z,101362.61
2018-10-18T08:20:33.956Z,101365.05
2018-10-18T08:21:37.614Z,101367.23
2018-10-18T08:22:41.728Z,101365.86
2018-10-18T08:23:45.142Z,101367.23
2018-10-18T08:24:48.608Z,101369.43
2018-10-18T08:25:52.039Z,101370.24
2018-10-18T08:26:55.465Z,101371.63
2018-10-18T08:27:58.916Z,101364.31
2018-10-18T08:29:02.404Z,101367.48
2018-10-18T08:30:08.613Z,101369.11
2018-10-18T08:31:12.126Z,101371.30
2018-10-18T08:32:15.429Z,101368.53
2018-10-18T08:33:18.834Z,101364.95
2018-10-18T08:34:22.305Z,101369.34
2018-10-18T08:35:25.858Z,101365.20
2018-10-18T08:36:29.486Z,101372.11
2018-10-18T08:37:33.218Z,101372.11
2018-10-18T08:38:36.616Z,101374.31
2018-10-18T08:39:40.148Z,101369.34
2018-10-18T08:40:43.620Z,101369.34
2018-10-18T08:41:47.088Z,101367.40
2018-10-18T08:42:50.521Z,101369.34
2018-10-18T08:43:54.032Z,101369.11
2018-10-18T08:44:57.493Z,101368.86
2018-10-18T08:46:00.940Z,101359.59
2018-10-18T08:47:04.546Z,101368.86
2018-10-18T08:48:08.360Z,101372.77
2018-10-18T08:49:11.876Z,101375.52
2018-10-18T08:50:15.250Z,101371.77
2018-10-18T08:51:18.628Z,101373.66
2018-10-18T08:52:22.035Z,101378.62
2018-10-18T08:53:25.570Z,101383.33
2018-10-18T08:54:29.066Z,101381.70
2018-10-18T08:55:32.539Z,101384.19
2018-10-18T08:56:36.062Z,101384.19
2018-10-18T08:57:39.656Z,101388.09
2018-10-18T08:58:43.171Z,101383.14
2018-10-18T08:59:46.652Z,101387.28
2018-10-18T09:00:50.060Z,101392.56
2018-10-18T09:01:53.457Z,101387.61
2018-10-18T09:02:57.026Z,101384.03
2018-10-18T09:04:00.717Z,101384.84
2018-10-18T09:05:04.203Z,101381.67
2018-10-18T09:06:07.609Z,101389.88
2018-10-18T09:07:11.066Z,101385.00
2018-10-18T09:08:14.529Z,101391.83
2018-10-18T09:09:18.832Z,101385.73
2018-10-18T09:10:22.303Z,101388.50
2018-10-18T09:11:25.785Z,101384.36
2018-10-18T09:12:29.234Z,101394.03
2018-10-18T09:13:32.740Z,101387.12
2018-10-18T09:14:36.390Z,101388.26
2018-10-18T09:15:39.837Z,101388.50
2018-10-18T09:16:43.477Z,101391.02
2018-10-18T09:17:46.974Z,101389.31
2018-10-18T09:18:50.463Z,101387.12
2018-10-18T09:19:53.934Z,101387.69
2018-10-18T09:20:57.339Z,101387.12
2018-10-18T09:22:00.741Z,101391.83
2018-10-18T09:23:04.164Z,101388.26
2018-10-18T09:24:08.010Z,101386.06
2018-10-18T09:25:12.079Z,101386.63
2018-10-18T09:26:15.356Z,101389.96
2018-10-18T09:27:18.741Z,101381.51
2018-10-18T09:28:23.005Z,101387.28
2018-10-18T09:29:26.735Z,101385.38
2018-10-18T09:30:30.268Z,101394.43
2018-10-18T09:31:33.739Z,101395.56
2018-10-18T09:32:37.205Z,101395.33
2018-10-18T09:33:40.720Z,101393.37
2018-10-18T09:34:44.333Z,101395.33
2018-10-18T09:35:47.787Z,101403.09
2018-10-18T09:36:51.396Z,101401.71
2018-10-18T09:37:54.826Z,101401.71
2018-10-18T09:38:58.407Z,101398.70
2018-10-18T09:40:01.829Z,101396.48
2018-10-18T09:41:05.352Z,101400.33
2018-10-18T09:42:08.802Z,101398.70
2018-10-18T09:43:12.528Z,101399.23
2018-10-18T09:44:15.983Z,101398.99
2018-10-18T09:45:19.360Z,101395.98
2018-10-18T09:46:22.782Z,101405.09
2018-10-18T09:47:26.569Z,101406.23
2018-10-18T09:48:29.977Z,101403.70
2018-10-18T09:49:33.327Z,101403.46
2018-10-18T09:50:36.747Z,101407.85
2018-10-18T09:51:40.180Z,101407.36
2018-10-18T09:52:43.605Z,101409.80
2018-10-18T09:53:46.960Z,101406.23
2018-10-18T09:54:50.431Z,101412.89
2018-10-18T09:55:53.876Z,101417.03
2018-10-18T09:56:57.342Z,101411.27
2018-10-18T09:58:00.789Z,101423.13
2018-10-18T09:59:04.259Z,101412.07
2018-10-18T10:00:12.169Z,101411.02
2018-10-18T10:01:20.793Z,101424.26
2018-10-18T10:02:29.554Z,101422.63
2018-10-18T10:03:33.022Z,101407.35
2018-10-18T10:04:36.425Z,101412.16
2018-10-18T10:05:40.081Z,101418.73
2018-10-18T10:06:43.576Z,101416.86
2018-10-18T10:07:47.180Z,101410.77
2018-10-18T10:08:50.584Z,101409.63
2018-10-18T10:09:54.071Z,101416.30
2018-10-18T10:10:57.473Z,101418.48
2018-10-18T10:12:00.920Z,101420.69
2018-10-18T10:13:04.409Z,101405.40
2018-10-18T10:14:07.914Z,101422.95
2018-10-18T10:15:11.301Z,101421.82
2018-10-18T10:16:15.687Z,101422.63
2018-10-18T10:17:19.150Z,101424.58
2018-10-18T10:18:25.479Z,101415.48
2018-10-18T10:19:28.933Z,101418.24
2018-10-18T10:20:32.510Z,101423.20
2018-10-18T10:21:35.894Z,101425.96
2018-10-18T10:22:39.307Z,101413.69
2018-10-18T10:23:42.757Z,101421.00
2018-10-18T10:24:46.264Z,101418.56
2018-10-18T10:25:49.663Z,101421.58
2018-10-18T10:26:53.525Z,101422.47
2018-10-18T10:27:57.374Z,101417.59
2018-10-18T10:29:00.787Z,101422.14
2018-10-18T10:30:04.456Z,101419.06
2018-10-18T10:31:08.399Z,101416.54
2018-10-18T10:32:11.741Z,101413.85
2018-10-18T10:33:15.408Z,101408.50
2018-10-18T10:34:18.795Z,101413.62
2018-10-18T10:35:22.169Z,101419.09
2018-10-18T10:36:25.685Z,101418.80
2018-10-18T10:37:29.082Z,101414.91
2018-10-18T10:38:32.539Z,101414.02
2018-10-18T10:39:35.956Z,101410.77
2018-10-18T10:40:39.347Z,101412.80
2018-10-18T10:41:42.749Z,101413.05
2018-10-18T10:42:46.182Z,101411.34
2018-10-18T10:43:49.644Z,101405.24
2018-10-18T10:44:53.099Z,101410.31
2018-10-18T10:45:56.639Z,101413.64
2018-10-18T10:47:00.095Z,101408.44
2018-10-18T10:48:03.671Z,101415.11
2018-10-18T10:49:07.377Z,101401.50
2018-10-18T10:50:10.851Z,101406.70
2018-10-18T10:51:14.539Z,101396.70
2018-10-18T10:52:18.285Z,101401.83
2018-10-18T10:53:21.771Z,101401.58
2018-10-18T10:54:25.284Z,101399.71
2018-10-18T10:55:28.731Z,101392.66
2018-10-18T10:56:32.150Z,101402.23
2018-10-18T10:57:35.589Z,101398.95
2018-10-18T10:58:39.067Z,101394.56
2018-10-18T10:59:42.521Z,101393.17
2018-10-18T11:01:18.894Z,101386.56
2018-10-18T11:02:22.325Z,101388.84
2018-10-18T11:03:25.775Z,101385.75
2018-10-18T11:04:29.243Z,101390.41
2018-10-18T11:05:32.664Z,101383.88
2018-10-18T11:06:36.054Z,101389.89
2018-10-18T11:07:39.523Z,101384.69
2018-10-18T11:08:42.952Z,101385.58
2018-10-18T11:09:46.593Z,101387.53
2018-10-18T11:10:49.929Z,101384.85
2018-10-18T11:11:53.402Z,101387.94
2018-10-18T11:12:56.908Z,101391.59
2018-10-18T11:14:00.599Z,101384.20
2018-10-18T11:15:04.137Z,101383.67
2018-10-18T11:16:07.863Z,101388.95
2018-10-18T11:17:11.521Z,101390.09
2018-10-18T11:18:14.983Z,101391.80
2018-10-18T11:19:18.510Z,101391.30
2018-10-18T11:20:22.014Z,101391.38
2018-10-18T11:21:25.531Z,101391.95
2018-10-18T11:22:28.961Z,101396.09
2018-10-18T11:23:32.859Z,101393.66
2018-10-18T11:24:36.482Z,101394.22
2018-10-18T11:25:40.008Z,101396.41
2018-10-18T11:26:43.444Z,101380.36
2018-10-18T11:27:46.881Z,101390.20
2018-10-18T11:28:50.297Z,101398.11
2018-10-18T11:29:53.851Z,101391.21
2018-10-18T11:30:57.447Z,101388.77
2018-10-18T11:32:00.922Z,101395.92
2018-10-18T11:33:04.565Z,101391.53
2018-10-18T11:34:08.030Z,101393.48
2018-10-18T11:35:11.587Z,101391.83
2018-10-18T11:36:15.257Z,101389.06
2018-10-18T11:37:18.678Z,101393.77
2018-10-18T11:38:22.074Z,101399.30
2018-10-18T11:39:25.552Z,101394.86
2018-10-18T11:40:28.921Z,101389.46
2018-10-18T11:41:32.379Z,101393.77
2018-10-18T11:42:35.825Z,101396.36
2018-10-18T11:43:39.261Z,101400.92
2018-10-18T11:44:42.690Z,101390.84
2018-10-18T11:45:46.092Z,101391.53
2018-10-18T11:46:49.554Z,101395.11
2018-10-18T11:47:52.986Z,101395.92
2018-10-18T11:48:56.819Z,101393.66
2018-10-18T11:50:01.538Z,101395.59
2018-10-18T11:51:04.872Z,101392.84
2018-10-18T11:52:08.414Z,101395.77
2018-10-18T11:53:11.741Z,101388.38
2018-10-18T11:54:15.253Z,101389.28
2018-10-18T11:55:18.664Z,101382.86
2018-10-18T11:56:22.068Z,101389.16
2018-10-18T11:57:25.549Z,101391.84
2018-10-18T11:58:28.962Z,101375.75
2018-10-18T11:59:32.441Z,101380.62
2018-10-18T12:00:35.822Z,101385.58
2018-10-18T12:01:39.283Z,101381.12
2018-10-18T12:02:42.894Z,101382.17
2018-10-18T12:03:46.271Z,101379.41
2018-10-18T12:04:49.716Z,101381.85
2018-10-18T12:05:53.137Z,101378.52